Time;durP1;ratioP1;P1;durP2;ratioP2;P2;SDS_P1;SDS_P2;PMS_P1;PMS_P2;Temp;Humidity;BMP_temperature;BMP_pressure;BME280_temperature;BME280_humidity;BME280_pressure;Samples;Min_cycle;Max_cycle;Signal;HPM_P1;HPM_P2
2021/12/16 00:02:10;;;;;;;;;;;9.30;61.30;;;;;;5096034;28;19915;-60
2021/12/16 00:29:19;;;;;;;;;;;8.90;63.60;;;;;;5095690;28;19973;-61
2021/12/16 00:34:11;;;;;;;;;;;8.70;64.30;;;;;;5095700;28;19915;-61
2021/12/16 00:36:39;;;;;;;;;;;8.70;64.50;;;;;;5095655;28;19908;-63
2021/12/16 00:39:08;;;;;;;;;;;8.70;64.60;;;;;;5095096;28;20391;-64
2021/12/16 00:41:34;;;;;;;;;;;8.80;64.30;;;;;;5095415;28;19908;-64
2021/12/16 00:44:12;;;;;;;;;;;8.90;64.00;;;;;;5095528;28;19912;-63
2021/12/16 00:49:31;;;;;;;;;;;9.00;63.60;;;;;;5095527;28;19916;-64
2021/12/16 00:54:45;;;;;;;;;;;9.00;63.70;;;;;;5095592;28;19915;-65
2021/12/16 00:57:14;;;;;;;;;;;9.00;63.80;;;;;;5095272;28;20287;-62
2021/12/16 00:59:43;;;;;;;;;;;8.90;63.80;;;;;;5094996;28;19919;-64
2021/12/16 01:02:28;;;;;;;;;;;9.00;63.70;;;;;;5094944;28;19995;-62
2021/12/16 01:07:56;;;;;;;;;;;9.00;63.50;;;;;;5095232;28;19908;-62
2021/12/16 01:36:14;;;;;;;;;;;8.90;62.80;;;;;;5094693;28;19960;-62
2021/12/16 01:41:17;;;;;;;;;;;9.00;62.60;;;;;;5094661;28;19915;-60
2021/12/16 01:46:40;;;;;;;;;;;9.00;62.20;;;;;;5094259;28;19915;-60
2021/12/16 01:49:30;;;;;;;;;;;8.90;62.30;;;;;;5094230;28;20051;-61
2021/12/16 01:59:39;;;;;;;;;;;8.90;61.50;;;;;;5094115;28;20422;-60
2021/12/16 02:02:14;;;;;;;;;;;8.90;61.60;;;;;;5094080;28;20251;-62
2021/12/16 02:05:05;;;;;;;;;;;8.90;61.60;;;;;;5094033;28;19912;-62
2021/12/16 02:08:18;;;;;;;;;;;8.90;61.30;;;;;;5093627;28;19912;-62
2021/12/16 02:10:14;;;;;;;;;;;9.00;61.10;;;;;;5093247;28;19922;-62
2021/12/16 02:32:05;;;;;;;;;;;9.10;60.20;;;;;;5093758;28;19923;-61
2021/12/16 02:37:16;;;;;;;;;;;9.20;60.30;;;;;;5093516;28;20007;-60
2021/12/16 02:39:42;;;;;;;;;;;9.20;60.10;;;;;;5093671;28;19915;-60
2021/12/16 02:42:13;;;;;;;;;;;9.20;60.30;;;;;;5093364;28;19915;-62
2021/12/16 02:49:52;;;;;;;;;;;9.10;60.90;;;;;;5093472;28;19939;-61
2021/12/16 02:52:19;;;;;;;;;;;9.00;60.80;;;;;;5093294;28;20312;-60
2021/12/16 02:54:45;;;;;;;;;;;8.90;61.50;;;;;;5093374;28;19930;-62
2021/12/16 02:57:10;;;;;;;;;;;8.80;62.00;;;;;;5093206;28;20022;-61
2021/12/16 02:59:36;;;;;;;;;;;8.80;62.10;;;;;;5091942;28;19908;-60
2021/12/16 03:02:07;;;;;;;;;;;8.80;62.30;;;;;;5094140;28;19912;-61
2021/12/16 03:04:33;;;;;;;;;;;8.80;62.40;;;;;;5097189;28;20377;-60
2021/12/16 03:07:00;;;;;;;;;;;8.70;62.70;;;;;;5097699;28;19931;-61
2021/12/16 03:14:54;;;;;;;;;;;8.80;62.80;;;;;;5097086;28;19908;-61
2021/12/16 03:18:13;;;;;;;;;;;8.90;63.00;;;;;;5097360;28;20321;-62
2021/12/16 03:20:30;;;;;;;;;;;8.90;62.70;;;;;;5092765;28;20678;-61
2021/12/16 03:23:08;;;;;;;;;;;9.00;62.50;;;;;;5096797;28;19908;-60
2021/12/16 03:38:33;;;;;;;;;;;8.90;63.30;;;;;;5096872;28;20377;-60
2021/12/16 03:40:59;;;;;;;;;;;8.80;63.10;;;;;;5095442;28;19998;-61
2021/12/16 03:43:26;;;;;;;;;;;8.80;63.30;;;;;;5096638;28;19915;-60
2021/12/16 03:48:41;;;;;;;;;;;8.80;63.50;;;;;;5096498;28;19908;-62
2021/12/16 03:51:09;;;;;;;;;;;8.80;63.60;;;;;;5096479;28;20280;-62
2021/12/16 03:53:35;;;;;;;;;;;8.70;63.90;;;;;;5096311;28;19908;-61
2021/12/16 03:56:01;;;;;;;;;;;8.60;64.30;;;;;;5096300;28;19908;-59
2021/12/16 03:58:26;;;;;;;;;;;8.50;64.60;;;;;;5096424;28;19930;-60
2021/12/16 04:00:54;;;;;;;;;;;8.50;64.70;;;;;;5096236;28;19962;-62
2021/12/16 04:03:20;;;;;;;;;;;8.50;64.90;;;;;;5096322;28;20380;-62
2021/12/16 04:05:46;;;;;;;;;;;8.60;64.80;;;;;;5096194;28;19930;-65
2021/12/16 04:08:12;;;;;;;;;;;8.60;64.70;;;;;;5096082;28;20260;-62
2021/12/16 04:10:44;;;;;;;;;;;8.60;64.60;;;;;;5096385;28;19916;-64
2021/12/16 04:13:12;;;;;;;;;;;8.60;64.10;;;;;;5096001;28;19908;-62
2021/12/16 04:15:38;;;;;;;;;;;8.80;64.00;;;;;;5095625;28;19909;-62
2021/12/16 04:18:04;;;;;;;;;;;8.70;64.00;;;;;;5095884;28;19915;-60
2021/12/16 04:20:30;;;;;;;;;;;8.70;64.10;;;;;;5096040;28;19912;-65
2021/12/16 04:22:55;;;;;;;;;;;8.60;64.20;;;;;;5095541;28;20257;-63
2021/12/16 04:25:23;;;;;;;;;;;8.70;64.00;;;;;;5095900;28;19908;-61
2021/12/16 04:27:50;;;;;;;;;;;8.80;64.00;;;;;;5095641;28;19998;-63
2021/12/16 04:30:16;;;;;;;;;;;8.80;63.70;;;;;;5095565;28;19920;-64
2021/12/16 04:32:42;;;;;;;;;;;8.90;63.60;;;;;;5095658;28;19908;-61
2021/12/16 04:35:08;;;;;;;;;;;8.90;63.30;;;;;;5095575;28;19908;-62
2021/12/16 04:37:35;;;;;;;;;;;9.00;63.30;;;;;;5095657;28;19908;-62
2021/12/16 04:40:02;;;;;;;;;;;9.00;63.10;;;;;;5095640;28;19919;-63
2021/12/16 04:42:28;;;;;;;;;;;9.00;62.80;;;;;;5095262;28;20374;-62
2021/12/16 04:44:54;;;;;;;;;;;9.00;62.80;;;;;;5095418;28;19910;-59
2021/12/16 04:47:19;;;;;;;;;;;9.00;62.70;;;;;;5094177;28;19952;-64
2021/12/16 04:49:45;;;;;;;;;;;9.10;62.50;;;;;;5095261;28;20279;-62
2021/12/16 04:52:12;;;;;;;;;;;9.10;62.70;;;;;;5095403;28;19908;-62
2021/12/16 04:54:37;;;;;;;;;;;9.00;62.70;;;;;;5095553;28;20283;-63
2021/12/16 04:57:03;;;;;;;;;;;9.10;62.70;;;;;;5095363;28;19909;-63
2021/12/16 04:59:30;;;;;;;;;;;9.20;62.50;;;;;;5095109;28;19908;-61
2021/12/16 05:02:03;;;;;;;;;;;9.20;62.50;;;;;;5095334;28;19912;-60
2021/12/16 05:04:29;;;;;;;;;;;9.20;62.50;;;;;;5095222;28;20323;-60
2021/12/16 05:06:55;;;;;;;;;;;9.20;62.40;;;;;;5095055;28;19966;-60
2021/12/16 05:10:01;;;;;;;;;;;9.10;62.30;;;;;;5094977;28;19923;-60
2021/12/16 05:12:12;;;;;;;;;;;9.10;62.40;;;;;;5094872;28;19908;-60
2021/12/16 05:14:37;;;;;;;;;;;9.10;62.30;;;;;;5095060;28;19908;-60
2021/12/16 05:17:09;;;;;;;;;;;9.00;62.60;;;;;;5094737;28;19912;-60
2021/12/16 05:19:35;;;;;;;;;;;8.90;62.70;;;;;;5095026;28;19998;-60
2021/12/16 05:24:45;;;;;;;;;;;9.00;62.70;;;;;;5094823;28;19914;-61
2021/12/16 05:27:10;;;;;;;;;;;9.00;62.50;;;;;;5093291;28;19911;-61
2021/12/16 05:29:36;;;;;;;;;;;9.00;62.50;;;;;;5094477;28;20027;-60
2021/12/16 05:32:02;;;;;;;;;;;8.90;62.80;;;;;;5094393;28;19912;-60
2021/12/16 05:34:28;;;;;;;;;;;8.90;62.90;;;;;;5094398;28;19915;-61
2021/12/16 05:36:54;;;;;;;;;;;8.90;62.90;;;;;;5094583;28;19931;-60
2021/12/16 05:39:20;;;;;;;;;;;8.90;62.90;;;;;;5094489;28;19955;-61
2021/12/16 05:41:46;;;;;;;;;;;8.90;63.00;;;;;;5094454;28;20324;-61
2021/12/16 05:44:12;;;;;;;;;;;8.90;62.80;;;;;;5094158;28;19919;-61
2021/12/16 05:46:37;;;;;;;;;;;8.90;62.80;;;;;;5094607;28;19955;-61
2021/12/16 05:49:04;;;;;;;;;;;8.90;63.00;;;;;;5094372;28;20363;-60
2021/12/16 05:51:32;;;;;;;;;;;9.00;62.90;;;;;;5094000;28;19965;-61
2021/12/16 05:53:59;;;;;;;;;;;9.00;63.00;;;;;;5094219;28;19915;-60
2021/12/16 05:56:25;;;;;;;;;;;8.90;62.90;;;;;;5094086;28;19947;-60
2021/12/16 05:58:50;;;;;;;;;;;9.00;62.80;;;;;;5094003;28;19962;-60
2021/12/16 06:01:21;;;;;;;;;;;9.00;62.60;;;;;;5094181;28;20374;-61
2021/12/16 06:03:47;;;;;;;;;;;8.90;62.90;;;;;;5093947;28;20009;-61
2021/12/16 06:06:12;;;;;;;;;;;9.00;63.00;;;;;;5094168;28;19916;-61
2021/12/16 06:08:38;;;;;;;;;;;8.90;62.90;;;;;;5094179;28;19919;-61
2021/12/16 06:13:44;;;;;;;;;;;8.80;63.50;;;;;;5094145;28;19999;-61
2021/12/16 06:27:15;;;;;;;;;;;8.70;63.80;;;;;;5093738;28;20335;-61
2021/12/16 06:29:43;;;;;;;;;;;8.70;64.00;;;;;;5093345;28;19920;-61
2021/12/16 06:32:09;;;;;;;;;;;8.60;64.20;;;;;;5093260;28;19912;-60
2021/12/16 06:34:35;;;;;;;;;;;8.70;64.30;;;;;;5093679;28;19954;-60
2021/12/16 06:37:00;;;;;;;;;;;8.70;64.10;;;;;;5093202;28;19937;-60
2021/12/16 06:39:26;;;;;;;;;;;8.60;64.30;;;;;;5093353;28;20249;-61
2021/12/16 06:41:51;;;;;;;;;;;8.60;64.50;;;;;;5093558;28;19948;-61
2021/12/16 06:46:47;;;;;;;;;;;8.90;63.50;;;;;;5093663;28;20348;-61
2021/12/16 06:49:15;;;;;;;;;;;8.90;63.60;;;;;;5093248;28;20299;-61
2021/12/16 06:51:55;;;;;;;;;;;8.80;63.30;;;;;;5092912;28;19939;-64
2021/12/16 06:54:28;;;;;;;;;;;8.90;63.40;;;;;;5093379;28;20287;-61
2021/12/16 06:57:21;;;;;;;;;;;8.90;63.30;;;;;;5093029;28;20001;-61
2021/12/16 06:59:54;;;;;;;;;;;8.90;63.30;;;;;;5093169;28;20417;-61
2021/12/16 07:02:41;;;;;;;;;;;8.90;63.20;;;;;;5093538;28;19915;-61
2021/12/16 07:05:06;;;;;;;;;;;9.00;63.20;;;;;;5093073;28;20261;-60
2021/12/16 07:07:32;;;;;;;;;;;8.90;63.40;;;;;;5093059;28;20023;-61
2021/12/16 07:09:57;;;;;;;;;;;8.80;63.70;;;;;;5091610;28;20411;-60
2021/12/16 07:12:34;;;;;;;;;;;8.80;63.80;;;;;;5093180;28;19920;-60
2021/12/16 07:15:00;;;;;;;;;;;8.80;63.70;;;;;;5092740;28;19935;-60
2021/12/16 07:17:26;;;;;;;;;;;8.90;63.60;;;;;;5093090;28;19908;-63
2021/12/16 07:19:51;;;;;;;;;;;9.00;71.80;;;;;;5092897;28;19908;-64
2021/12/16 07:22:18;;;;;;;;;;;9.70;71.00;;;;;;5087447;28;19912;-56
2021/12/16 07:24:44;;;;;;;;;;;9.70;63.00;;;;;;5072179;28;19916;-66
2021/12/16 07:27:10;;;;;;;;;;;9.60;63.30;;;;;;5071893;28;19912;-59
2021/12/16 07:29:36;;;;;;;;;;;9.80;64.60;;;;;;5069305;28;19921;-64
2021/12/16 07:32:02;;;;;;;;;;;10.00;65.60;;;;;;5071974;28;19916;-64
2021/12/16 07:34:27;;;;;;;;;;;10.10;62.00;;;;;;5071706;28;19977;-67
2021/12/16 07:36:53;;;;;;;;;;;10.40;61.20;;;;;;5072089;28;19992;-60
2021/12/16 07:39:26;;;;;;;;;;;10.50;59.30;;;;;;5071979;28;19909;-59
2021/12/16 07:41:53;;;;;;;;;;;10.30;58.70;;;;;;5070588;28;19941;-62
2021/12/16 07:44:19;;;;;;;;;;;10.00;59.50;;;;;;5071898;28;20448;-57
2021/12/16 07:46:49;;;;;;;;;;;10.40;62.40;;;;;;5071836;28;19991;-57
2021/12/16 07:49:16;;;;;;;;;;;10.40;59.10;;;;;;5082756;28;19909;-56
2021/12/16 07:51:42;;;;;;;;;;;10.20;58.90;;;;;;5095163;28;19916;-59
2021/12/16 07:54:08;;;;;;;;;;;9.90;59.80;;;;;;5095406;28;19916;-61
2021/12/16 07:56:34;;;;;;;;;;;9.60;60.80;;;;;;5090901;28;19909;-64
2021/12/16 07:59:00;;;;;;;;;;;9.50;61.40;;;;;;5075602;28;20363;-63
2021/12/16 08:01:27;;;;;;;;;;;9.60;61.40;;;;;;5075239;28;19909;-59
2021/12/16 08:03:53;;;;;;;;;;;9.80;60.80;;;;;;5075079;28;19924;-61
2021/12/16 08:06:22;;;;;;;;;;;9.70;61.00;;;;;;5075340;28;20372;-58
2021/12/16 08:08:52;;;;;;;;;;;9.80;61.10;;;;;;5075278;28;19985;-62
2021/12/16 08:11:18;;;;;;;;;;;9.80;61.10;;;;;;5075748;28;20403;-64
2021/12/16 08:13:44;;;;;;;;;;;9.70;61.10;;;;;;5075734;28;19912;-62
2021/12/16 08:16:10;;;;;;;;;;;9.70;61.60;;;;;;5075641;28;20378;-67
2021/12/16 08:18:35;;;;;;;;;;;9.70;61.50;;;;;;5075655;28;19915;-62
2021/12/16 08:21:02;;;;;;;;;;;9.80;61.40;;;;;;5075475;28;19915;-66
2021/12/16 08:23:27;;;;;;;;;;;9.90;61.00;;;;;;5075663;28;19909;-61
2021/12/16 08:25:53;;;;;;;;;;;10.00;60.80;;;;;;5071766;28;20011;-61
2021/12/16 08:28:19;;;;;;;;;;;10.00;60.30;;;;;;5073303;28;19967;-66
2021/12/16 08:30:46;;;;;;;;;;;10.00;60.60;;;;;;5073948;28;19916;-66
2021/12/16 08:33:13;;;;;;;;;;;10.10;60.40;;;;;;5073919;28;20257;-65
2021/12/16 08:35:40;;;;;;;;;;;10.10;60.40;;;;;;5073787;28;19912;-62
2021/12/16 08:38:10;;;;;;;;;;;10.20;60.20;;;;;;5074283;28;19912;-62
2021/12/16 08:40:39;;;;;;;;;;;10.20;59.90;;;;;;5073824;28;19944;-63
2021/12/16 08:43:05;;;;;;;;;;;10.20;59.90;;;;;;5074203;28;19909;-60
2021/12/16 08:45:31;;;;;;;;;;;10.30;60.00;;;;;;5074277;28;19909;-60
2021/12/16 08:47:57;;;;;;;;;;;10.40;59.50;;;;;;5074552;28;19909;-62
2021/12/16 08:50:25;;;;;;;;;;;10.40;59.50;;;;;;5074320;28;19912;-59
2021/12/16 08:52:50;;;;;;;;;;;10.50;59.20;;;;;;5075018;28;19912;-63
2021/12/16 08:55:16;;;;;;;;;;;10.50;59.50;;;;;;5074956;28;19967;-64
2021/12/16 08:57:42;;;;;;;;;;;10.40;59.60;;;;;;5074711;28;19910;-61
2021/12/16 09:00:10;;;;;;;;;;;10.50;59.30;;;;;;5074608;28;19913;-60
2021/12/16 09:02:36;;;;;;;;;;;10.60;59.00;;;;;;5074867;28;19909;-64
2021/12/16 09:05:03;;;;;;;;;;;10.60;59.10;;;;;;5074703;28;19939;-67
2021/12/16 09:07:28;;;;;;;;;;;10.60;59.30;;;;;;5074821;28;20310;-59
2021/12/16 09:09:56;;;;;;;;;;;10.50;59.30;;;;;;5074544;28;19920;-63
2021/12/16 09:12:48;;;;;;;;;;;10.60;59.30;;;;;;5073984;28;19908;-58
2021/12/16 09:15:12;;;;;;;;;;;10.60;59.20;;;;;;5073808;28;20410;-60
2021/12/16 09:17:37;;;;;;;;;;;10.70;59.10;;;;;;5073287;28;19915;-60
2021/12/16 09:20:04;;;;;;;;;;;10.80;59.70;;;;;;5073345;28;19942;-59
2021/12/16 09:22:30;;;;;;;;;;;11.00;59.10;;;;;;5072333;28;20388;-58
2021/12/16 09:24:56;;;;;;;;;;;11.10;58.40;;;;;;5072442;28;19908;-59
2021/12/16 09:27:22;;;;;;;;;;;11.00;57.90;;;;;;5074180;28;19927;-68
2021/12/16 09:29:48;;;;;;;;;;;11.10;58.30;;;;;;5073457;28;19943;-58
2021/12/16 09:32:14;;;;;;;;;;;11.10;58.10;;;;;;5071360;28;19922;-58
2021/12/16 09:34:41;;;;;;;;;;;11.10;57.60;;;;;;5088121;28;20003;-60
2021/12/16 09:37:07;;;;;;;;;;;11.10;57.80;;;;;;5071688;28;19994;-58
2021/12/16 09:39:32;;;;;;;;;;;11.00;58.30;;;;;;5072561;28;20334;-57
2021/12/16 09:41:59;;;;;;;;;;;11.20;57.60;;;;;;5080015;28;20283;-58
2021/12/16 09:44:25;;;;;;;;;;;11.30;57.40;;;;;;5073243;28;19961;-57
2021/12/16 09:46:53;;;;;;;;;;;11.30;57.00;;;;;;5071217;28;20326;-57
2021/12/16 09:49:19;;;;;;;;;;;11.30;56.90;;;;;;5073274;28;19912;-59
2021/12/16 09:51:46;;;;;;;;;;;11.30;56.90;;;;;;5071575;28;20329;-58
2021/12/16 09:54:14;;;;;;;;;;;11.30;56.90;;;;;;5073066;28;19915;-57
2021/12/16 09:56:40;;;;;;;;;;;11.30;56.80;;;;;;5073237;28;19909;-57
2021/12/16 09:59:08;;;;;;;;;;;11.30;56.40;;;;;;5072999;28;20364;-58
2021/12/16 10:01:33;;;;;;;;;;;11.40;56.40;;;;;;5072439;28;19916;-58
2021/12/16 10:04:03;;;;;;;;;;;11.40;56.20;;;;;;5071721;28;19909;-61
2021/12/16 10:06:30;;;;;;;;;;;11.40;56.40;;;;;;5071902;28;19912;-59
2021/12/16 10:08:55;;;;;;;;;;;11.30;56.50;;;;;;5072419;28;20386;-58
2021/12/16 10:11:21;;;;;;;;;;;11.30;56.50;;;;;;5072278;28;19921;-56
2021/12/16 10:14:44;;;;;;;;;;;11.30;56.70;;;;;;5073367;28;19908;-57
2021/12/16 10:19:17;;;;;;;;;;;11.30;56.80;;;;;;5073425;28;19981;-59
2021/12/16 10:21:44;;;;;;;;;;;11.30;56.50;;;;;;5073476;28;20364;-57
2021/12/16 10:24:24;;;;;;;;;;;11.40;56.30;;;;;;5073087;28;19912;-57
2021/12/16 10:27:07;;;;;;;;;;;11.50;56.00;;;;;;5073489;28;19916;-58
2021/12/16 10:29:56;;;;;;;;;;;11.50;56.00;;;;;;5073140;28;20383;-59
2021/12/16 10:32:41;;;;;;;;;;;11.70;55.60;;;;;;5070213;28;20356;-59
2021/12/16 10:35:12;;;;;;;;;;;11.70;55.70;;;;;;5072461;28;20474;-57
2021/12/16 10:37:39;;;;;;;;;;;11.80;55.10;;;;;;5073289;28;19915;-57
2021/12/16 10:40:23;;;;;;;;;;;11.70;55.20;;;;;;5073151;28;19991;-58
2021/12/16 10:42:49;;;;;;;;;;;11.70;55.50;;;;;;5073263;28;19915;-57
2021/12/16 10:45:33;;;;;;;;;;;11.90;55.30;;;;;;5073186;28;19912;-60
2021/12/16 10:48:13;;;;;;;;;;;11.80;55.30;;;;;;5072967;28;19958;-57
2021/12/16 10:51:05;;;;;;;;;;;11.60;55.40;;;;;;5071435;28;19928;-58
2021/12/16 10:53:45;;;;;;;;;;;11.60;55.30;;;;;;5064286;28;19913;-59
2021/12/16 10:56:12;;;;;;;;;;;11.70;55.50;;;;;;5072906;28;20314;-57
2021/12/16 10:58:53;;;;;;;;;;;11.70;55.50;;;;;;5071436;28;19908;-58
2021/12/16 11:01:30;;;;;;;;;;;11.60;56.00;;;;;;5072921;28;19940;-58
2021/12/16 11:03:56;;;;;;;;;;;11.60;55.80;;;;;;5072941;28;20003;-58
2021/12/16 11:06:37;;;;;;;;;;;11.60;56.00;;;;;;5073041;28;19908;-57
2021/12/16 11:09:21;;;;;;;;;;;11.80;55.90;;;;;;5072686;28;19954;-58
2021/12/16 11:11:47;;;;;;;;;;;11.90;55.30;;;;;;5072978;28;20269;-59
2021/12/16 11:14:12;;;;;;;;;;;11.90;55.20;;;;;;5072980;28;19919;-58
2021/12/16 11:16:38;;;;;;;;;;;11.90;55.10;;;;;;5071868;28;20280;-59
2021/12/16 11:19:05;;;;;;;;;;;11.90;55.10;;;;;;5072763;28;20352;-59
2021/12/16 11:21:39;;;;;;;;;;;11.80;55.00;;;;;;5072734;28;19913;-62
2021/12/16 11:24:20;;;;;;;;;;;11.70;55.20;;;;;;5075175;28;19908;-58
2021/12/16 11:26:46;;;;;;;;;;;11.80;55.30;;;;;;5076825;28;20352;-58
2021/12/16 11:29:12;;;;;;;;;;;12.00;55.00;;;;;;5076216;28;19965;-57
2021/12/16 11:31:39;;;;;;;;;;;12.00;54.60;;;;;;5076563;28;20011;-58
2021/12/16 11:34:08;;;;;;;;;;;12.00;54.70;;;;;;5076368;28;20344;-59
2021/12/16 11:36:35;;;;;;;;;;;11.80;55.00;;;;;;5074666;28;19975;-58
2021/12/16 11:39:04;;;;;;;;;;;11.70;55.00;;;;;;5075182;28;19913;-56
2021/12/16 11:41:32;;;;;;;;;;;11.60;55.40;;;;;;5075023;28;19908;-58
2021/12/16 11:44:01;;;;;;;;;;;11.70;55.40;;;;;;5075332;28;19915;-58
2021/12/16 11:46:27;;;;;;;;;;;11.70;55.20;;;;;;5075356;28;19915;-59
2021/12/16 11:48:54;;;;;;;;;;;11.80;54.90;;;;;;5076203;28;19909;-61
2021/12/16 11:51:26;;;;;;;;;;;11.70;55.30;;;;;;5076020;28;20061;-63
2021/12/16 11:53:53;;;;;;;;;;;11.70;55.10;;;;;;5076118;28;19909;-57
2021/12/16 11:56:20;;;;;;;;;;;11.70;55.00;;;;;;5076103;28;20276;-61
2021/12/16 11:58:46;;;;;;;;;;;11.70;54.90;;;;;;5076046;28;19909;-65
2021/12/16 12:01:15;;;;;;;;;;;11.70;55.60;;;;;;5074559;28;19908;-60
2021/12/16 12:03:40;;;;;;;;;;;11.80;54.90;;;;;;5076392;28;20369;-59
2021/12/16 12:06:16;;;;;;;;;;;11.80;54.90;;;;;;5074444;28;20007;-60
2021/12/16 12:08:45;;;;;;;;;;;11.80;54.70;;;;;;5075851;28;19951;-61
2021/12/16 12:11:19;;;;;;;;;;;11.80;54.60;;;;;;5074609;28;19962;-58
2021/12/16 12:13:47;;;;;;;;;;;11.70;54.60;;;;;;5074934;28;19951;-60
2021/12/16 12:16:12;;;;;;;;;;;11.80;54.50;;;;;;5074838;28;20272;-60
2021/12/16 12:18:46;;;;;;;;;;;11.80;54.40;;;;;;5075054;28;19909;-59
2021/12/16 12:21:32;;;;;;;;;;;11.90;54.20;;;;;;5074707;28;20284;-62
2021/12/16 12:24:06;;;;;;;;;;;11.80;54.10;;;;;;5074937;28;19996;-63
2021/12/16 12:26:34;;;;;;;;;;;11.80;54.10;;;;;;5075140;28;19995;-61
2021/12/16 12:29:04;;;;;;;;;;;11.70;54.30;;;;;;5074618;28;19932;-60
2021/12/16 12:31:31;;;;;;;;;;;11.90;54.20;;;;;;5072363;28;19927;-60
2021/12/16 12:33:57;;;;;;;;;;;11.90;54.00;;;;;;5072538;28;19908;-60
2021/12/16 12:36:23;;;;;;;;;;;11.80;54.10;;;;;;5073682;28;20396;-64
2021/12/16 12:38:49;;;;;;;;;;;11.80;54.30;;;;;;5074577;28;19976;-63
2021/12/16 12:41:15;;;;;;;;;;;11.80;54.50;;;;;;5074366;28;19909;-65
2021/12/16 12:43:40;;;;;;;;;;;11.80;54.30;;;;;;5074008;28;19912;-63
2021/12/16 12:46:07;;;;;;;;;;;11.90;54.20;;;;;;5065424;28;19908;-67
2021/12/16 12:48:38;;;;;;;;;;;11.90;54.10;;;;;;5062637;28;19984;-62
2021/12/16 12:51:05;;;;;;;;;;;11.90;54.30;;;;;;5093222;28;20299;-64
2021/12/16 12:53:51;;;;;;;;;;;12.00;53.90;;;;;;5092997;28;19908;-61
2021/12/16 12:56:28;;;;;;;;;;;12.00;53.90;;;;;;5092904;28;19908;-60
2021/12/16 12:58:58;;;;;;;;;;;12.10;53.90;;;;;;5092677;28;20249;-62
2021/12/16 13:01:56;;;;;;;;;;;12.20;53.50;;;;;;5094058;28;20326;-63
2021/12/16 13:04:24;;;;;;;;;;;12.00;53.40;;;;;;5070929;28;19915;-64
2021/12/16 13:06:56;;;;;;;;;;;11.90;53.90;;;;;;5092870;28;19912;-69
2021/12/16 13:09:23;;;;;;;;;;;11.90;53.90;;;;;;5090438;28;19908;-70
2021/12/16 13:11:49;;;;;;;;;;;11.90;54.00;;;;;;5089762;28;20414;-69
2021/12/16 13:14:20;;;;;;;;;;;11.90;54.00;;;;;;5081807;28;19911;-68
2021/12/16 13:28:02;;;;;;;;;;;11.60;54.40;;;;;;5078575;28;19912;-70
2021/12/16 13:30:31;;;;;;;;;;;11.70;54.20;;;;;;5084242;28;19925;-67
2021/12/16 13:33:54;;;;;;;;;;;11.70;54.00;;;;;;5087333;28;20360;-68
2021/12/16 13:36:17;;;;;;;;;;;11.80;53.80;;;;;;5086538;28;19912;-68
2021/12/16 13:38:47;;;;;;;;;;;11.70;53.90;;;;;;5086978;28;20275;-67
2021/12/16 13:41:15;;;;;;;;;;;11.70;53.80;;;;;;5078728;28;19916;-65
2021/12/16 13:43:54;;;;;;;;;;;11.60;53.70;;;;;;5083451;28;19912;-68
2021/12/16 18:44:51;;;;;;;;;;;8.90;61.40;;;;;;5051060;28;19991;-68
2021/12/16 18:47:45;;;;;;;;;;;8.70;62.20;;;;;;5059938;28;20278;-72
2021/12/16 18:50:34;;;;;;;;;;;8.60;62.20;;;;;;5054074;28;19908;-66
2021/12/16 18:55:37;;;;;;;;;;;8.50;62.00;;;;;;5054734;28;20001;-68
2021/12/16 18:58:03;;;;;;;;;;;8.70;61.90;;;;;;5043793;28;19960;-70
2021/12/16 19:00:30;;;;;;;;;;;8.80;61.30;;;;;;5046865;28;20003;-67
2021/12/16 19:02:55;;;;;;;;;;;8.80;61.50;;;;;;5042350;28;19994;-68
2021/12/16 19:05:22;;;;;;;;;;;8.80;61.80;;;;;;5037931;28;19909;-67
2021/12/16 19:07:48;;;;;;;;;;;8.90;61.40;;;;;;5054629;28;19913;-64
2021/12/16 19:10:17;;;;;;;;;;;8.90;61.00;;;;;;5054915;28;19909;-68
2021/12/16 19:12:43;;;;;;;;;;;8.90;61.30;;;;;;5050584;28;19917;-71
2021/12/16 19:15:11;;;;;;;;;;;8.90;61.00;;;;;;5033658;28;20432;-69
2021/12/16 19:17:37;;;;;;;;;;;8.90;60.90;;;;;;5033928;28;19909;-69
2021/12/16 19:20:08;;;;;;;;;;;9.00;60.60;;;;;;5036281;28;19917;-72
2021/12/16 19:22:33;;;;;;;;;;;9.00;60.10;;;;;;5045371;28;19909;-68
2021/12/16 19:24:59;;;;;;;;;;;9.20;59.60;;;;;;5051950;28;20386;-73
2021/12/16 19:27:24;;;;;;;;;;;9.10;59.60;;;;;;5051451;28;19909;-65
2021/12/16 19:29:52;;;;;;;;;;;8.90;60.10;;;;;;5054641;28;19956;-69
2021/12/16 19:32:19;;;;;;;;;;;8.70;61.00;;;;;;5055020;28;19924;-69
2021/12/16 19:34:47;;;;;;;;;;;8.80;61.10;;;;;;5054865;28;20359;-66
2021/12/16 19:37:15;;;;;;;;;;;8.60;61.90;;;;;;5056161;28;20403;-63
2021/12/16 19:39:41;;;;;;;;;;;8.70;62.30;;;;;;5057858;28;19909;-63
2021/12/16 19:42:06;;;;;;;;;;;8.70;62.20;;;;;;5057197;28;19909;-69
2021/12/16 19:44:33;;;;;;;;;;;8.60;62.10;;;;;;5058736;28;19920;-74
2021/12/16 19:46:58;;;;;;;;;;;8.60;62.50;;;;;;5058354;28;19909;-68
2021/12/16 19:49:25;;;;;;;;;;;8.60;62.70;;;;;;5057366;28;19915;-65
2021/12/16 19:51:51;;;;;;;;;;;8.60;62.70;;;;;;5056999;28;19917;-68
2021/12/16 19:54:17;;;;;;;;;;;8.50;62.60;;;;;;5057164;28;20313;-65
2021/12/16 19:56:44;;;;;;;;;;;8.50;63.00;;;;;;5056446;28;20368;-63
2021/12/16 19:59:09;;;;;;;;;;;8.40;63.00;;;;;;5055838;28;19909;-67
2021/12/16 20:01:37;;;;;;;;;;;8.30;63.60;;;;;;5056938;28;19909;-65
2021/12/16 20:04:23;;;;;;;;;;;8.10;64.50;;;;;;5056926;28;19920;-62
2021/12/16 20:06:51;;;;;;;;;;;8.40;64.10;;;;;;5056180;28;19909;-69
2021/12/16 20:09:21;;;;;;;;;;;8.40;64.00;;;;;;5056621;28;19916;-70
2021/12/16 20:11:48;;;;;;;;;;;8.30;64.20;;;;;;5056399;28;19917;-64
2021/12/16 20:14:14;;;;;;;;;;;8.20;64.60;;;;;;5056340;28;19952;-65
2021/12/16 20:16:45;;;;;;;;;;;8.20;64.80;;;;;;5056992;28;20381;-74
2021/12/16 20:19:11;;;;;;;;;;;8.20;64.30;;;;;;5056975;28;20004;-68
2021/12/16 20:21:49;;;;;;;;;;;8.20;64.50;;;;;;5056835;28;19945;-66
2021/12/16 20:24:16;;;;;;;;;;;8.10;64.90;;;;;;5056465;28;19909;-72
2021/12/16 20:26:55;;;;;;;;;;;8.00;65.30;;;;;;5056677;28;19999;-66
2021/12/16 20:29:23;;;;;;;;;;;8.10;64.80;;;;;;5060104;28;20347;-71
2021/12/16 20:31:55;;;;;;;;;;;8.10;64.50;;;;;;5066352;28;19917;-69
2021/12/16 20:34:23;;;;;;;;;;;8.00;64.60;;;;;;5067462;28;19980;-64
2021/12/16 20:36:52;;;;;;;;;;;7.90;64.90;;;;;;5066844;28;19916;-65
2021/12/16 20:39:17;;;;;;;;;;;7.70;65.60;;;;;;5063550;28;19948;-65
2021/12/16 20:41:46;;;;;;;;;;;7.60;66.40;;;;;;5063428;28;19963;-70
2021/12/16 20:44:14;;;;;;;;;;;7.60;66.70;;;;;;5082596;28;19900;-70
2021/12/16 20:46:44;;;;;;;;;;;7.60;66.50;;;;;;5084569;28;20000;-65
2021/12/16 20:49:12;;;;;;;;;;;7.70;66.60;;;;;;5058265;28;20310;-71
2021/12/16 20:51:43;;;;;;;;;;;7.70;66.40;;;;;;5076376;28;19983;-74
2021/12/16 20:54:10;;;;;;;;;;;7.70;66.70;;;;;;5076158;28;19908;-72
2021/12/16 20:56:36;;;;;;;;;;;7.70;66.30;;;;;;5075487;28;19915;-73
2021/12/16 20:59:09;;;;;;;;;;;7.60;66.50;;;;;;5075782;28;19915;-70
2021/12/16 21:01:36;;;;;;;;;;;7.40;67.50;;;;;;5075888;28;19909;-68
2021/12/16 21:04:04;;;;;;;;;;;7.50;67.70;;;;;;5076029;28;19912;-68
2021/12/16 21:06:32;;;;;;;;;;;7.40;68.20;;;;;;5075633;28;19919;-67
2021/12/16 21:08:57;;;;;;;;;;;7.40;68.20;;;;;;5075473;28;20279;-77
2021/12/16 21:11:23;;;;;;;;;;;7.60;67.50;;;;;;5074941;28;19920;-64
2021/12/16 21:13:50;;;;;;;;;;;7.40;68.20;;;;;;5075207;28;20306;-65
2021/12/16 21:16:16;;;;;;;;;;;7.40;68.10;;;;;;5061244;28;19915;-67
2021/12/16 21:18:41;;;;;;;;;;;7.60;67.40;;;;;;5065809;28;20271;-66
2021/12/16 21:21:08;;;;;;;;;;;7.60;67.50;;;;;;5052010;28;19912;-63
2021/12/16 21:23:34;;;;;;;;;;;7.70;67.30;;;;;;5057158;28;19919;-67
2021/12/16 21:25:59;;;;;;;;;;;7.90;66.70;;;;;;5075066;28;19908;-66
2021/12/16 21:28:25;;;;;;;;;;;8.00;65.90;;;;;;5074795;28;19908;-63
2021/12/16 21:30:52;;;;;;;;;;;7.90;65.80;;;;;;5075305;28;19919;-67
2021/12/16 21:33:24;;;;;;;;;;;7.90;66.30;;;;;;5057189;28;20265;-62
2021/12/16 21:35:57;;;;;;;;;;;7.80;66.60;;;;;;5077865;28;19912;-63
2021/12/16 21:38:24;;;;;;;;;;;7.80;66.50;;;;;;5087964;28;19909;-63
2021/12/16 21:40:50;;;;;;;;;;;8.00;66.30;;;;;;5080530;28;19910;-64
2021/12/16 21:43:15;;;;;;;;;;;7.90;66.60;;;;;;5084884;28;19909;-64
2021/12/16 21:45:41;;;;;;;;;;;7.90;66.50;;;;;;5077091;28;19927;-69
2021/12/16 21:48:08;;;;;;;;;;;8.00;66.10;;;;;;5057921;28;19958;-71
2021/12/16 21:50:37;;;;;;;;;;;8.00;65.90;;;;;;5075442;28;19917;-69
2021/12/16 21:53:03;;;;;;;;;;;8.00;66.70;;;;;;5074588;28;19954;-67
2021/12/16 21:55:34;;;;;;;;;;;7.90;66.70;;;;;;5076204;28;19916;-68
2021/12/16 21:58:03;;;;;;;;;;;7.80;67.00;;;;;;5079428;28;19970;-67
2021/12/16 22:00:29;;;;;;;;;;;7.80;67.50;;;;;;5081829;28;19908;-64
2021/12/16 22:02:57;;;;;;;;;;;7.70;67.60;;;;;;5079240;28;19955;-70
2021/12/16 22:05:22;;;;;;;;;;;7.70;67.90;;;;;;5082624;28;19908;-69
2021/12/16 22:07:48;;;;;;;;;;;7.70;68.00;;;;;;5080822;28;19915;-64
2021/12/16 22:10:14;;;;;;;;;;;7.70;67.80;;;;;;5078157;28;19916;-63
2021/12/16 22:12:41;;;;;;;;;;;7.70;68.10;;;;;;5074956;28;19973;-72
2021/12/16 22:15:08;;;;;;;;;;;7.80;67.30;;;;;;5074722;28;19915;-70